createdAt,value
2022-08-22T00:00:06.202Z,17.29
2022-08-22T00:01:06.437Z,17.29
2022-08-22T00:02:06.754Z,17.32
2022-08-22T00:02:47.781Z,20.74
2022-08-22T00:02:52.599Z,20.80
2022-08-22T00:02:53.533Z,19.90
2022-08-22T00:02:55.438Z,17.92
2022-08-22T00:02:58.277Z,18.57
2022-08-22T00:03:04.817Z,20.64
2022-08-22T00:03:09.414Z,17.23
2022-08-22T00:03:15.187Z,17.87
2022-08-22T00:03:22.618Z,17.35
2022-08-22T00:04:08.319Z,17.36
2022-08-22T00:05:07.554Z,17.28
2022-08-22T00:06:07.862Z,17.25
2022-08-22T00:07:08.161Z,17.22
2022-08-22T00:08:08.464Z,17.26
2022-08-22T00:09:08.753Z,17.30
2022-08-22T00:10:09.043Z,17.30
2022-08-22T00:11:09.375Z,17.23
2022-08-22T00:12:09.664Z,17.20
2022-08-22T00:13:09.992Z,17.13
2022-08-22T00:14:10.172Z,17.15
2022-08-22T00:15:31.531Z,17.23
2022-08-22T00:16:11.770Z,17.26
2022-08-22T00:17:11.041Z,17.29
2022-08-22T00:18:11.330Z,17.29
2022-08-22T00:19:11.673Z,17.30
2022-08-22T00:20:11.901Z,17.33
2022-08-22T00:21:12.204Z,17.35
2022-08-22T00:22:12.503Z,17.38
2022-08-22T00:23:12.803Z,17.40
2022-08-22T00:24:13.141Z,17.41
2022-08-22T00:25:24.685Z,17.41
2022-08-22T00:26:14.751Z,17.41
2022-08-22T00:27:13.991Z,17.40
2022-08-22T00:28:14.295Z,17.36
2022-08-22T00:29:14.593Z,17.33
2022-08-22T00:30:14.943Z,17.25
2022-08-22T00:31:15.271Z,17.13
2022-08-22T00:32:15.606Z,16.99
2022-08-22T00:33:15.894Z,16.89
2022-08-22T00:34:16.182Z,16.86
2022-08-22T00:35:16.465Z,16.75
2022-08-22T00:36:16.781Z,16.62
2022-08-22T00:37:17.128Z,16.52
2022-08-22T00:38:17.392Z,16.50
2022-08-22T00:39:17.573Z,16.44
2022-08-22T00:40:17.973Z,16.37
2022-08-22T00:41:18.195Z,16.30
2022-08-22T00:42:31.927Z,16.26
2022-08-22T00:43:19.836Z,16.23
2022-08-22T00:44:19.102Z,16.20
2022-08-22T00:45:19.405Z,16.18
2022-08-22T00:46:19.694Z,16.12
2022-08-22T00:47:19.988Z,16.07
2022-08-22T00:48:20.292Z,16.01
2022-08-22T00:49:20.605Z,15.96
2022-08-22T00:50:20.832Z,15.94
2022-08-22T00:51:21.121Z,15.93
2022-08-22T00:52:21.414Z,15.92
2022-08-22T02:57:02.640Z,16.16
2022-08-22T02:58:02.872Z,16.14
2022-08-22T02:59:03.200Z,16.06
2022-08-22T03:00:03.530Z,15.99
2022-08-22T03:01:03.934Z,16.00
2022-08-22T03:02:04.216Z,16.06
2022-08-22T03:03:04.420Z,16.11
2022-08-22T03:04:04.748Z,16.16
2022-08-22T03:05:05.052Z,16.15
2022-08-22T03:06:05.351Z,16.06
2022-08-22T03:07:05.689Z,16.09
2022-08-22T03:08:05.872Z,16.14
2022-08-22T03:09:06.166Z,16.15
2022-08-22T03:10:06.465Z,16.20
2022-08-22T03:11:06.819Z,16.18
2022-08-22T03:12:07.011Z,16.22
2022-08-22T03:13:07.300Z,16.22
2022-08-22T03:14:07.602Z,16.15
2022-08-22T03:15:08.844Z,16.01
2022-08-22T03:16:08.235Z,15.92
2022-08-22T03:17:08.438Z,15.94
2022-08-22T03:18:08.762Z,15.99
2022-08-22T03:19:18.341Z,15.96
2022-08-22T03:20:10.332Z,15.92
2022-08-22T03:21:09.607Z,15.93
2022-08-22T03:22:09.800Z,15.97
2022-08-22T03:23:10.109Z,16.00
2022-08-22T03:24:10.402Z,16.03
2022-08-22T03:25:10.741Z,16.04
2022-08-22T03:26:11.066Z,16.07
2022-08-22T03:27:11.363Z,16.04
2022-08-22T03:28:11.641Z,16.04
2022-08-22T03:29:11.946Z,16.04
2022-08-22T03:30:12.258Z,16.04
2022-08-22T03:31:12.586Z,16.00
2022-08-22T03:32:12.786Z,16.01
2022-08-22T03:33:13.093Z,16.01
2022-08-22T03:34:13.437Z,15.92
2022-08-22T03:35:13.752Z,15.85
2022-08-22T03:36:14.055Z,15.82
2022-08-22T03:37:14.330Z,15.82
2022-08-22T03:38:14.654Z,15.86
2022-08-22T03:39:17.325Z,15.89
2022-08-22T03:40:15.241Z,15.92
2022-08-22T03:41:15.402Z,15.96
2022-08-22T03:42:15.630Z,15.86
2022-08-22T03:43:15.833Z,15.76
2022-08-22T03:44:16.137Z,15.64
2022-08-22T03:45:16.444Z,15.56
2022-08-22T03:46:18.257Z,15.48
2022-08-22T03:47:17.104Z,15.38
2022-08-22T03:48:17.422Z,15.30
2022-08-22T03:49:17.776Z,15.33
2022-08-22T03:50:17.983Z,15.38
2022-08-22T03:51:18.302Z,15.39
2022-08-22T03:52:18.600Z,15.41
2022-08-22T03:53:19.481Z,15.46
2022-08-22T03:54:19.244Z,15.43
2022-08-22T03:55:19.556Z,15.38
2022-08-22T03:56:19.912Z,15.31
2022-08-22T03:57:20.138Z,15.23
2022-08-22T03:58:27.447Z,15.17
2022-08-22T03:59:21.748Z,15.15
2022-08-22T04:00:20.997Z,15.09
2022-08-22T04:01:21.333Z,15.06
2022-08-22T04:02:24.747Z,15.01
2022-08-22T04:03:22.928Z,14.94
2022-08-22T04:04:22.163Z,14.91
2022-08-22T04:05:22.461Z,14.87
2022-08-22T04:06:22.725Z,14.84
2022-08-22T04:07:28.160Z,14.83
2022-08-22T04:08:26.339Z,14.83
2022-08-22T04:09:23.686Z,14.81
2022-08-22T04:10:23.868Z,14.84
2022-08-22T04:11:24.151Z,14.83
2022-08-22T04:12:24.430Z,14.86
2022-08-22T04:13:25.016Z,14.84
2022-08-22T04:14:25.034Z,14.83
2022-08-22T04:15:25.223Z,14.83
2022-08-22T04:16:25.539Z,14.83
2022-08-22T04:17:25.847Z,14.83
2022-08-22T04:18:26.070Z,14.87
2022-08-22T04:19:26.424Z,14.93
2022-08-22T04:20:26.617Z,15.11
2022-08-22T04:21:26.925Z,15.27
2022-08-22T04:22:27.209Z,15.42
2022-08-22T04:23:27.513Z,15.52
2022-08-22T04:24:27.812Z,15.57
2022-08-22T04:25:28.110Z,15.59
2022-08-22T04:26:28.413Z,15.60
2022-08-22T04:27:28.723Z,15.63
2022-08-22T04:28:29.056Z,15.64
2022-08-22T04:29:29.369Z,15.67
2022-08-22T04:30:29.684Z,15.68
2022-08-22T04:31:30.002Z,15.67
2022-08-22T04:32:30.312Z,15.67
2022-08-22T04:33:30.665Z,15.64
2022-08-22T04:34:30.858Z,15.64
2022-08-22T04:35:31.164Z,15.64
2022-08-22T04:36:31.470Z,15.61
2022-08-22T04:37:31.758Z,15.61
2022-08-22T04:38:32.082Z,15.63
2022-08-22T04:39:32.285Z,15.61
2022-08-22T04:40:32.604Z,15.66
2022-08-22T04:41:32.914Z,15.66
2022-08-22T04:42:33.590Z,15.68
2022-08-22T04:43:33.569Z,15.70
2022-08-22T04:44:33.879Z,15.70
2022-08-22T04:45:34.181Z,15.67
2022-08-22T04:46:37.053Z,15.67
2022-08-22T04:47:34.764Z,15.64
2022-08-22T04:48:35.102Z,15.61
2022-08-22T04:49:35.343Z,15.61
2022-08-22T04:50:37.252Z,15.60
2022-08-22T04:51:35.800Z,15.57
2022-08-22T04:52:36.135Z,15.52
2022-08-22T04:53:36.399Z,15.46
2022-08-22T04:54:36.606Z,15.45
2022-08-22T04:55:36.921Z,15.39
2022-08-22T04:56:37.244Z,15.38
2022-08-22T04:57:37.553Z,15.39
2022-08-22T04:58:37.883Z,15.43
2022-08-22T04:59:38.185Z,15.49
2022-08-22T05:00:38.509Z,15.54
2022-08-22T05:01:38.944Z,15.59
2022-08-22T05:02:39.047Z,15.63
2022-08-22T05:03:44.352Z,15.67
2022-08-22T05:04:40.640Z,15.68
2022-08-22T05:05:39.914Z,15.70
2022-08-22T05:06:40.119Z,15.74
2022-08-22T05:07:40.473Z,15.75
2022-08-22T05:08:40.682Z,15.72
2022-08-22T05:09:41.005Z,15.68
2022-08-22T05:10:41.313Z,15.63
2022-08-22T05:11:41.627Z,15.57
2022-08-22T05:12:41.976Z,15.54
2022-08-22T05:13:42.159Z,15.57
2022-08-22T05:14:42.428Z,15.56
2022-08-22T05:15:42.740Z,15.60
2022-08-22T05:16:43.044Z,15.66
2022-08-22T05:17:43.373Z,15.64
2022-08-22T05:18:43.575Z,15.64
2022-08-22T05:19:43.889Z,15.66
2022-08-22T05:20:44.209Z,15.68
2022-08-22T05:21:44.548Z,15.66
2022-08-22T05:22:44.891Z,15.64
2022-08-22T05:23:45.189Z,15.61
2022-08-22T05:24:45.494Z,15.63
2022-08-22T05:25:45.801Z,15.61
2022-08-22T05:26:46.096Z,15.61
2022-08-22T05:27:46.404Z,15.63
2022-08-22T05:28:50.182Z,15.63
2022-08-22T05:29:48.048Z,15.67
2022-08-22T05:30:47.294Z,15.78
2022-08-22T05:31:47.606Z,15.86
2022-08-22T05:32:47.932Z,15.94
2022-08-22T05:33:48.246Z,16.03
2022-08-22T05:34:48.629Z,16.11
2022-08-22T05:35:51.594Z,16.15
2022-08-22T05:36:49.222Z,16.18
2022-08-22T05:37:49.521Z,16.23
2022-08-22T05:38:49.880Z,16.30
2022-08-22T05:39:50.098Z,16.35
2022-08-22T05:40:50.317Z,16.40
2022-08-22T05:41:50.623Z,16.41
2022-08-22T05:42:50.958Z,16.48
2022-08-22T05:43:51.319Z,16.53
2022-08-22T05:44:51.494Z,16.58
2022-08-22T05:45:51.814Z,16.65
2022-08-22T05:46:52.142Z,16.71
2022-08-22T05:47:52.465Z,16.78
2022-08-22T05:48:52.709Z,16.86
2022-08-22T05:49:53.022Z,16.93
2022-08-22T05:50:53.346Z,17.00
2022-08-22T05:51:53.665Z,17.07
2022-08-22T05:52:53.994Z,17.13
2022-08-22T05:53:54.338Z,17.17
2022-08-22T05:54:54.526Z,17.25
2022-08-22T05:55:54.839Z,17.30
2022-08-22T05:56:55.152Z,17.36
2022-08-22T05:57:55.508Z,17.43
2022-08-22T05:58:55.837Z,17.47
2022-08-22T05:59:56.034Z,17.50
2022-08-22T06:00:56.342Z,17.55
2022-08-22T06:01:56.691Z,17.62
2022-08-22T06:02:56.944Z,17.66
2022-08-22T06:03:57.283Z,17.71
2022-08-22T06:04:57.455Z,17.79
2022-08-22T06:05:57.744Z,17.85
2022-08-22T06:06:58.038Z,17.91
2022-08-22T06:07:58.490Z,17.97
2022-08-22T06:08:58.695Z,18.00
2022-08-22T06:09:58.923Z,18.06
2022-08-22T06:10:59.246Z,18.07
2022-08-22T06:11:59.551Z,18.17
2022-08-22T06:12:59.879Z,18.19
2022-08-22T06:14:00.217Z,18.25
2022-08-22T06:15:00.401Z,18.28
2022-08-22T06:16:00.699Z,18.36
2022-08-22T06:17:01.058Z,18.40
2022-08-22T06:18:01.269Z,18.43
2022-08-22T06:19:01.579Z,18.47
2022-08-22T06:20:01.879Z,18.47
2022-08-22T06:21:02.197Z,18.46
2022-08-22T06:22:02.561Z,18.43
2022-08-22T06:23:02.743Z,18.40
2022-08-22T06:24:03.093Z,18.43
2022-08-22T06:25:03.289Z,18.43
2022-08-22T06:26:03.609Z,18.44
2022-08-22T06:27:03.934Z,18.46
2022-08-22T06:28:04.287Z,18.47
2022-08-22T06:29:04.469Z,18.49
2022-08-22T06:30:04.753Z,18.50
2022-08-22T06:31:05.057Z,18.54
2022-08-22T06:32:05.360Z,18.55
2022-08-22T06:33:05.709Z,18.57
2022-08-22T06:34:06.007Z,18.57
2022-08-22T06:35:06.326Z,18.59
2022-08-22T06:36:06.640Z,18.62
2022-08-22T06:37:06.953Z,18.65
2022-08-22T06:38:07.304Z,18.68
2022-08-22T06:39:07.495Z,18.73
2022-08-22T06:40:07.867Z,18.76
2022-08-22T06:41:08.098Z,18.79
2022-08-22T06:42:10.365Z,18.82
2022-08-22T06:43:08.758Z,18.84
2022-08-22T06:44:08.948Z,18.86
2022-08-22T06:45:09.257Z,18.87
2022-08-22T06:46:09.586Z,18.90
2022-08-22T06:47:09.899Z,18.84
2022-08-22T06:48:10.198Z,18.80
2022-08-22T06:49:10.508Z,18.73
2022-08-22T06:50:10.875Z,18.61
2022-08-22T06:51:11.149Z,18.58
2022-08-22T06:52:11.465Z,18.61
2022-08-22T06:53:11.782Z,18.65
2022-08-22T06:54:12.085Z,18.67
2022-08-22T06:55:16.254Z,18.70
2022-08-22T06:56:12.626Z,18.68
2022-08-22T06:57:12.924Z,18.73
2022-08-22T06:58:13.276Z,18.72
2022-08-22T06:59:13.568Z,18.73
2022-08-22T07:00:13.868Z,18.76
2022-08-22T07:01:14.192Z,18.77
2022-08-22T07:02:14.509Z,18.82
2022-08-22T07:03:14.797Z,18.86
2022-08-22T07:04:15.131Z,18.92
2022-08-22T07:05:19.189Z,18.97
2022-08-22T07:06:15.679Z,18.99
2022-08-22T07:07:15.967Z,19.05
2022-08-22T07:08:16.285Z,19.02
2022-08-22T07:09:16.599Z,18.99
2022-08-22T07:10:16.922Z,18.92
2022-08-22T07:11:17.233Z,18.86
2022-08-22T07:12:17.565Z,18.87
2022-08-22T07:13:17.873Z,18.92
2022-08-22T07:14:18.197Z,18.97
2022-08-22T07:15:18.536Z,18.98
2022-08-22T07:16:18.839Z,19.02
2022-08-22T07:17:19.184Z,19.08
2022-08-22T07:18:19.497Z,19.05
2022-08-22T07:19:19.826Z,19.06
2022-08-22T07:20:20.142Z,19.08
2022-08-22T07:21:20.438Z,19.08
2022-08-22T07:22:20.788Z,19.06
2022-08-22T07:23:21.101Z,19.08
2022-08-22T07:24:21.410Z,19.10
2022-08-22T07:25:21.713Z,19.10
2022-08-22T07:26:22.077Z,19.11
2022-08-22T07:27:22.255Z,19.11
2022-08-22T07:28:31.742Z,19.08
2022-08-22T07:29:23.854Z,19.11
2022-08-22T07:30:28.059Z,19.13
2022-08-22T07:31:24.438Z,19.17
2022-08-22T07:32:23.682Z,19.23
2022-08-22T07:33:27.022Z,19.25
2022-08-22T07:34:24.354Z,19.31
2022-08-22T07:35:24.644Z,19.33
2022-08-22T07:36:28.385Z,19.32
2022-08-22T07:37:26.237Z,19.33
2022-08-22T07:38:25.478Z,19.32
2022-08-22T07:39:25.841Z,19.32
2022-08-22T07:40:26.156Z,19.35
2022-08-22T07:41:26.268Z,19.39
2022-08-22T07:42:30.090Z,19.42
2022-08-22T07:43:26.920Z,19.38
2022-08-22T07:44:27.277Z,19.38
2022-08-22T07:45:27.488Z,19.40
2022-08-22T07:46:27.799Z,19.43
2022-08-22T07:47:28.079Z,19.43
2022-08-22T07:48:28.393Z,19.43
2022-08-22T07:49:28.692Z,19.46
2022-08-22T07:50:29.016Z,19.42
2022-08-22T07:51:29.344Z,19.40
2022-08-22T07:52:29.648Z,19.43
2022-08-22T07:53:29.956Z,19.50
2022-08-22T07:54:30.273Z,19.51
2022-08-22T07:55:30.559Z,19.57
2022-08-22T07:56:30.893Z,19.63
2022-08-22T07:57:31.075Z,19.65
2022-08-22T07:58:31.373Z,19.70
2022-08-22T07:59:31.687Z,19.75
2022-08-22T08:00:31.987Z,19.79
2022-08-22T08:01:32.377Z,19.84
2022-08-22T08:02:32.588Z,19.90
2022-08-22T08:03:32.892Z,19.94
2022-08-22T08:04:40.400Z,20.02
2022-08-22T08:05:33.409Z,20.05
2022-08-22T08:06:33.721Z,20.09
2022-08-22T08:07:34.081Z,20.15
2022-08-22T08:08:34.278Z,20.21
2022-08-22T08:09:34.589Z,20.18
2022-08-22T08:10:34.896Z,20.03
2022-08-22T08:11:35.236Z,19.97
2022-08-22T08:12:35.530Z,19.88
2022-08-22T08:13:35.862Z,19.91
2022-08-22T08:14:36.167Z,19.95
2022-08-22T08:15:36.466Z,20.02
2022-08-22T08:16:36.794Z,20.02
2022-08-22T08:17:37.094Z,20.06
2022-08-22T08:18:37.456Z,20.10
2022-08-22T08:19:37.633Z,20.13
2022-08-22T08:20:38.008Z,20.18
2022-08-22T08:21:38.205Z,20.21
2022-08-22T08:22:38.515Z,20.25
2022-08-22T08:23:39.658Z,20.35
2022-08-22T08:24:40.960Z,20.46
2022-08-22T08:25:39.470Z,20.54
2022-08-22T08:26:39.780Z,20.61
2022-08-22T08:27:40.119Z,20.66
2022-08-22T08:28:40.431Z,20.71
2022-08-22T08:29:40.760Z,20.74
2022-08-22T08:30:41.059Z,20.77
2022-08-22T08:31:43.195Z,20.81
2022-08-22T08:32:41.703Z,20.86
2022-08-22T08:33:41.946Z,20.84
2022-08-22T08:34:42.193Z,20.81
2022-08-22T08:36:02.881Z,20.86
2022-08-22T08:36:43.848Z,20.83
2022-08-22T08:37:43.123Z,20.79
2022-08-22T08:38:43.446Z,20.71
2022-08-22T08:39:43.766Z,20.64
2022-08-22T08:40:43.969Z,20.42
2022-08-22T08:41:44.243Z,20.31
2022-08-22T08:42:44.576Z,20.24
2022-08-22T08:43:44.874Z,20.25
2022-08-22T08:44:45.168Z,20.30
2022-08-22T08:45:45.462Z,20.35
2022-08-22T08:46:53.087Z,20.43
2022-08-22T08:47:47.935Z,20.50
2022-08-22T08:48:46.362Z,20.61
2022-08-22T08:49:46.611Z,20.69
2022-08-22T08:50:46.863Z,20.77
2022-08-22T08:51:47.158Z,20.81
2022-08-22T08:52:51.030Z,20.81
2022-08-22T08:53:48.773Z,20.79
2022-08-22T08:54:48.017Z,20.80
2022-08-22T08:55:48.321Z,20.71
2022-08-22T08:56:48.513Z,20.68
2022-08-22T08:57:48.838Z,20.77
2022-08-22T08:58:49.152Z,20.86
2022-08-22T08:59:49.484Z,21.01
2022-08-22T09:00:49.873Z,21.14
2022-08-22T09:01:50.103Z,21.26
2022-08-22T09:02:50.405Z,21.29
2022-08-22T09:04:52.038Z,21.39
2022-08-22T09:05:51.286Z,21.48
2022-08-22T09:06:52.857Z,21.56
2022-08-22T09:07:52.875Z,21.64
2022-08-22T09:08:55.620Z,21.75
2022-08-22T09:09:52.733Z,21.72
2022-08-22T09:10:52.763Z,21.82
2022-08-22T09:11:53.052Z,21.94
2022-08-22T09:12:56.110Z,21.97
2022-08-22T09:13:54.662Z,21.99
2022-08-22T09:14:53.943Z,22.09
2022-08-22T09:15:56.321Z,22.25
2022-08-22T09:16:55.422Z,22.38
2022-08-22T09:17:54.733Z,22.47
2022-08-22T09:18:54.956Z,22.52
2022-08-22T09:19:55.268Z,22.50
2022-08-22T09:20:55.597Z,22.46
2022-08-22T09:21:55.917Z,22.47
2022-08-22T09:22:56.230Z,22.56
2022-08-22T09:23:56.558Z,22.69
2022-08-22T09:24:56.862Z,22.72
2022-08-22T09:25:57.268Z,22.77
2022-08-22T09:26:57.602Z,22.80
2022-08-22T09:27:57.911Z,22.93
2022-08-22T09:28:57.977Z,22.99
2022-08-22T09:29:59.743Z,23.08
2022-08-22T09:30:58.568Z,23.26
2022-08-22T09:32:00.326Z,23.39
2022-08-22T09:32:59.140Z,23.50
2022-08-22T09:33:59.469Z,23.58
2022-08-22T09:34:59.813Z,23.55
2022-08-22T09:36:00.105Z,23.61
2022-08-22T09:37:00.380Z,23.61
2022-08-22T09:38:01.085Z,23.64
2022-08-22T09:39:00.922Z,23.71
2022-08-22T09:40:01.315Z,23.87
2022-08-22T09:41:02.311Z,24.08
2022-08-22T09:42:02.753Z,24.20
2022-08-22T09:43:02.417Z,24.39
2022-08-22T09:44:02.444Z,24.52
2022-08-22T09:45:02.811Z,24.56
2022-08-22T09:46:03.048Z,24.61
2022-08-22T09:47:03.365Z,24.64
2022-08-22T09:48:07.573Z,24.53
2022-08-22T09:49:05.413Z,24.44
2022-08-22T09:50:04.113Z,24.31
2022-08-22T09:51:28.697Z,24.13
2022-08-22T09:52:15.183Z,24.00
2022-08-22T09:53:05.907Z,24.12
2022-08-22T09:54:05.192Z,24.26
2022-08-22T09:55:08.634Z,24.44
2022-08-22T09:56:15.603Z,24.57
2022-08-22T09:57:07.041Z,24.61
2022-08-22T09:58:06.372Z,24.34
2022-08-22T09:59:09.817Z,24.19
2022-08-22T10:00:06.954Z,24.01
2022-08-22T10:01:07.344Z,24.00
2022-08-22T10:02:15.364Z,24.07
2022-08-22T10:03:08.872Z,24.04
2022-08-22T10:04:08.162Z,24.05
2022-08-22T10:05:08.461Z,24.12
2022-08-22T10:06:09.106Z,23.98
2022-08-22T10:07:11.923Z,23.98
2022-08-22T10:08:11.498Z,24.13
2022-08-22T10:09:09.480Z,24.29
2022-08-22T10:10:09.814Z,24.54
2022-08-22T10:11:10.096Z,24.76
2022-08-22T10:12:12.777Z,24.69
2022-08-22T10:13:10.782Z,24.76
2022-08-22T10:14:10.973Z,24.94
2022-08-22T10:15:11.205Z,24.82
2022-08-22T10:16:11.513Z,24.59
2022-08-22T10:17:11.792Z,24.38
2022-08-22T10:18:12.142Z,24.37
2022-08-22T10:19:12.314Z,24.59
2022-08-22T10:20:12.622Z,24.82
2022-08-22T10:21:12.856Z,25.01
2022-08-22T10:22:13.200Z,25.27
2022-08-22T10:23:13.483Z,25.24
2022-08-22T10:24:13.706Z,24.92
2022-08-22T10:25:15.007Z,24.64
2022-08-22T10:26:22.941Z,24.87
2022-08-22T10:27:15.641Z,25.00
2022-08-22T10:28:14.902Z,24.91
2022-08-22T10:29:15.204Z,24.71
2022-08-22T10:30:16.382Z,24.56
2022-08-22T10:31:15.750Z,24.31
2022-08-22T10:32:16.053Z,24.14
2022-08-22T10:33:16.322Z,24.17
2022-08-22T10:34:16.630Z,24.41
2022-08-22T10:35:16.974Z,24.53
2022-08-22T10:36:17.278Z,24.80
2022-08-22T10:37:17.576Z,24.79
2022-08-22T10:38:18.876Z,24.95
2022-08-22T10:39:18.164Z,24.97
2022-08-22T10:40:18.640Z,24.95
2022-08-22T10:41:18.696Z,25.15
2022-08-22T10:42:18.910Z,25.47
2022-08-22T10:43:19.187Z,25.32
2022-08-22T10:44:19.497Z,25.09
2022-08-22T10:45:23.905Z,24.68
2022-08-22T10:46:21.136Z,24.68
2022-08-22T10:47:20.386Z,24.73
2022-08-22T10:48:20.741Z,24.73
2022-08-22T10:49:22.442Z,24.79
2022-08-22T10:50:22.300Z,24.87
2022-08-22T10:51:21.556Z,24.95
2022-08-22T10:52:21.804Z,24.82
2022-08-22T10:53:29.491Z,24.92
2022-08-22T10:54:23.398Z,25.20
2022-08-22T10:55:22.685Z,25.42
2022-08-22T10:56:22.892Z,25.79
2022-08-22T10:57:23.166Z,26.09
2022-08-22T10:58:23.504Z,26.11
2022-08-22T10:59:23.737Z,26.08
2022-08-22T11:00:25.698Z,26.12
2022-08-22T11:01:37.439Z,26.46
2022-08-22T11:02:25.560Z,26.79
2022-08-22T11:03:25.056Z,26.61
2022-08-22T11:04:28.280Z,26.84
2022-08-22T11:05:25.332Z,26.95
2022-08-22T11:06:25.656Z,27.05
2022-08-22T11:07:25.979Z,26.87
2022-08-22T11:08:26.218Z,26.47
2022-08-22T11:09:26.557Z,26.22
2022-08-22T11:10:26.810Z,26.04
2022-08-22T11:11:32.957Z,25.86
2022-08-22T11:12:35.149Z,25.65
2022-08-22T11:13:28.630Z,25.59
2022-08-22T11:14:27.918Z,25.57
2022-08-22T11:15:34.973Z,25.54
2022-08-22T11:16:36.743Z,25.53
2022-08-22T11:17:32.400Z,25.49
2022-08-22T11:18:30.466Z,25.42
2022-08-22T11:19:29.452Z,25.38
2022-08-22T11:20:29.732Z,25.37
2022-08-22T11:21:30.063Z,25.35
2022-08-22T11:22:30.372Z,25.31
2022-08-22T11:23:30.721Z,25.24
2022-08-22T11:24:35.391Z,25.17
2022-08-22T11:25:38.406Z,25.10
2022-08-22T11:26:35.799Z,24.98
2022-08-22T11:27:34.480Z,24.97
2022-08-22T11:28:33.036Z,24.95
2022-08-22T11:29:32.272Z,24.91
2022-08-22T11:30:36.285Z,25.38
2022-08-22T11:31:36.738Z,25.83
2022-08-22T11:32:33.098Z,26.24
2022-08-22T11:33:47.333Z,26.58
2022-08-22T11:34:34.703Z,26.89
2022-08-22T11:35:33.964Z,27.13
2022-08-22T11:36:34.252Z,27.48
2022-08-22T11:37:42.526Z,27.91
2022-08-22T11:38:36.115Z,27.91
2022-08-22T11:39:35.041Z,27.61
2022-08-22T11:40:35.334Z,27.70
2022-08-22T11:41:35.705Z,27.70
2022-08-22T11:42:36.058Z,27.46
2022-08-22T11:43:37.374Z,27.24
2022-08-22T11:44:49.961Z,27.11
2022-08-22T11:45:37.924Z,26.57
2022-08-22T11:46:37.200Z,26.12
2022-08-22T11:47:37.423Z,26.31
2022-08-22T11:48:37.623Z,26.64
2022-08-22T11:49:37.940Z,27.04
2022-08-22T11:50:38.158Z,27.32
2022-08-22T11:51:38.503Z,27.21
2022-08-22T11:52:38.831Z,27.17
2022-08-22T11:53:39.024Z,27.14
2022-08-22T11:54:39.358Z,27.51
2022-08-22T11:55:39.614Z,28.06
2022-08-22T11:56:40.162Z,28.53
2022-08-22T11:57:41.823Z,28.87
2022-08-22T11:58:40.516Z,29.11
2022-08-22T11:59:40.841Z,29.41
2022-08-22T12:00:41.154Z,29.71
2022-08-22T12:01:41.477Z,29.86
2022-08-22T12:02:41.758Z,29.52
2022-08-22T12:03:42.024Z,29.68
2022-08-22T12:04:42.674Z,30.19
2022-08-22T12:05:42.648Z,30.36
2022-08-22T12:06:42.990Z,29.68
2022-08-22T12:07:47.388Z,29.11
2022-08-22T12:08:44.636Z,28.72
2022-08-22T12:09:43.880Z,28.32
2022-08-22T12:10:44.179Z,28.03
2022-08-22T12:11:44.479Z,27.71
2022-08-22T12:12:44.702Z,27.50
2022-08-22T12:13:45.050Z,27.36
2022-08-22T12:14:45.344Z,27.19
2022-08-22T12:15:45.690Z,26.89
2022-08-22T12:16:47.309Z,26.69
2022-08-22T12:17:55.301Z,26.55
2022-08-22T12:18:47.410Z,26.49
2022-08-22T12:20:12.835Z,26.44
2022-08-22T12:20:47.906Z,27.04
2022-08-22T12:21:47.221Z,27.59
2022-08-22T12:22:49.817Z,27.84
2022-08-22T12:23:49.328Z,28.28
2022-08-22T12:24:48.031Z,28.66
2022-08-22T12:25:48.270Z,28.97
2022-08-22T12:26:48.501Z,29.37
2022-08-22T12:27:50.632Z,29.63
2022-08-22T12:28:50.129Z,29.96
2022-08-22T12:29:49.375Z,30.19
2022-08-22T12:30:53.569Z,30.38
2022-08-22T12:31:50.929Z,30.23
2022-08-22T12:32:50.183Z,30.36
2022-08-22T12:33:50.499Z,29.90
2022-08-22T12:34:50.750Z,29.34
2022-08-22T12:35:51.080Z,29.62
2022-08-22T12:36:51.262Z,30.08
2022-08-22T12:37:52.736Z,30.54
2022-08-22T12:38:51.828Z,30.54
2022-08-22T12:39:52.075Z,30.62
2022-08-22T12:40:52.335Z,30.52
2022-08-22T12:41:52.522Z,30.71
2022-08-22T12:42:52.846Z,30.90
2022-08-22T12:43:53.166Z,31.01
2022-08-22T12:44:53.534Z,31.15
2022-08-22T12:45:53.733Z,31.20
2022-08-22T12:46:54.060Z,31.43
2022-08-22T12:47:54.406Z,31.67
2022-08-22T12:48:54.612Z,31.93
2022-08-22T12:49:54.970Z,31.99
2022-08-22T12:50:55.164Z,31.31
2022-08-22T12:51:55.825Z,30.69
2022-08-22T12:52:55.829Z,30.02
2022-08-22T12:53:56.018Z,29.33
2022-08-22T12:54:56.322Z,29.07
2022-08-22T12:55:56.629Z,28.80
2022-08-22T12:56:56.956Z,28.59
2022-08-22T12:58:01.421Z,28.41
2022-08-22T12:58:57.534Z,28.44
2022-08-22T12:59:58.136Z,28.38
2022-08-22T13:00:58.181Z,28.77
2022-08-22T13:01:58.403Z,29.38
2022-08-22T13:02:58.801Z,29.84
2022-08-22T13:03:58.915Z,30.09
2022-08-22T13:04:59.223Z,30.47
2022-08-22T13:06:00.561Z,30.54
2022-08-22T13:06:59.835Z,30.52
2022-08-22T13:08:04.132Z,30.91
2022-08-22T13:09:00.261Z,31.28
2022-08-22T13:10:00.561Z,31.08
2022-08-22T13:11:00.833Z,30.67
2022-08-22T13:12:02.460Z,30.90
2022-08-22T13:13:03.900Z,31.11
2022-08-22T13:14:02.634Z,31.64
2022-08-22T13:15:01.911Z,31.85
2022-08-22T13:16:02.280Z,32.00
2022-08-22T13:17:10.230Z,31.62
2022-08-22T13:18:25.157Z,31.45
2022-08-22T13:19:07.757Z,31.55
2022-08-22T13:20:03.310Z,31.45
2022-08-22T13:21:03.653Z,30.91
2022-08-22T13:22:03.865Z,30.27
2022-08-22T13:23:04.184Z,30.31
2022-08-22T13:24:05.469Z,30.57
2022-08-22T13:25:05.793Z,30.56
2022-08-22T13:26:07.687Z,30.38
2022-08-22T13:27:05.796Z,30.61
2022-08-22T13:28:05.860Z,30.69
2022-08-22T13:30:07.231Z,29.56
2022-08-22T13:31:07.617Z,29.22
2022-08-22T13:32:06.846Z,28.84
2022-08-22T13:33:08.752Z,28.87
2022-08-22T13:34:07.414Z,29.06
2022-08-22T13:35:07.756Z,29.41
2022-08-22T13:36:08.024Z,29.50
2022-08-22T13:37:08.277Z,29.65
2022-08-22T13:38:12.589Z,29.41
2022-08-22T13:39:08.945Z,29.43
2022-08-22T13:40:09.344Z,29.66
2022-08-22T13:41:09.523Z,29.74
2022-08-22T13:42:20.138Z,30.26
2022-08-22T13:43:11.202Z,30.64
2022-08-22T13:44:10.484Z,30.93
2022-08-22T13:45:10.792Z,31.09
2022-08-22T13:46:11.518Z,31.23
2022-08-22T13:47:14.520Z,31.31
2022-08-22T13:48:11.683Z,31.17
2022-08-22T13:49:12.042Z,31.11
2022-08-22T13:50:12.205Z,31.23
2022-08-22T13:51:12.558Z,30.91
2022-08-22T13:52:29.322Z,30.43
2022-08-22T13:53:14.190Z,29.92
2022-08-22T13:54:13.421Z,30.11
2022-08-22T13:55:13.770Z,30.27
2022-08-22T13:56:15.682Z,30.38
2022-08-22T13:57:14.294Z,30.80
2022-08-22T13:58:14.512Z,30.80
2022-08-22T13:59:29.245Z,30.59
2022-08-22T14:00:22.388Z,30.50
2022-08-22T14:01:16.539Z,30.81
2022-08-22T14:02:18.188Z,30.89
2022-08-22T14:03:15.990Z,31.12
2022-08-22T14:04:19.073Z,31.36
2022-08-22T14:05:17.565Z,31.35
2022-08-22T14:06:35.313Z,31.61
2022-08-22T14:07:18.131Z,31.80
2022-08-22T14:08:18.663Z,32.03
2022-08-22T14:09:29.453Z,31.98
2022-08-22T14:10:18.923Z,31.39
2022-08-22T14:11:18.232Z,31.18
2022-08-22T14:12:18.536Z,30.89
2022-08-22T14:13:18.766Z,30.76
2022-08-22T14:14:19.083Z,31.01
2022-08-22T14:15:19.401Z,30.94
2022-08-22T14:16:19.707Z,30.87
2022-08-22T14:17:20.964Z,30.78
2022-08-22T14:18:20.308Z,30.90
2022-08-22T14:19:21.624Z,31.01
2022-08-22T14:20:32.449Z,31.04
2022-08-22T14:21:22.160Z,31.45
2022-08-22T14:22:21.426Z,31.84
2022-08-22T14:23:22.727Z,31.93
2022-08-22T14:24:25.453Z,31.96
2022-08-22T14:25:23.364Z,32.02
2022-08-22T14:26:22.604Z,32.42
2022-08-22T14:27:23.896Z,32.18
2022-08-22T14:28:23.217Z,32.42
2022-08-22T14:29:23.501Z,32.77
2022-08-22T14:30:24.578Z,32.84
2022-08-22T14:31:24.123Z,33.07
2022-08-22T14:32:26.753Z,33.15
2022-08-22T14:33:24.725Z,33.26
2022-08-22T14:34:24.876Z,33.41
2022-08-22T14:35:35.258Z,33.39
2022-08-22T14:36:26.512Z,33.73
2022-08-22T14:37:25.767Z,33.80
2022-08-22T14:38:29.784Z,33.70
2022-08-22T14:39:26.273Z,33.53
2022-08-22T14:40:26.633Z,33.65
2022-08-22T14:41:26.908Z,33.82
2022-08-22T14:42:27.231Z,33.20
2022-08-22T14:43:27.540Z,32.52
2022-08-22T14:44:27.751Z,32.61
2022-08-22T14:45:28.045Z,32.92
2022-08-22T14:46:28.395Z,33.29
2022-08-22T14:47:54.171Z,33.64
2022-08-22T14:48:32.245Z,34.08
2022-08-22T14:49:29.300Z,34.45
2022-08-22T14:50:29.507Z,34.72
2022-08-22T14:51:29.761Z,34.08
2022-08-22T14:52:30.030Z,33.79
2022-08-22T14:53:30.347Z,34.04